createdAt,value
2022-10-05T00:01:28.142Z,15.20
2022-10-05T00:04:01.115Z,15.33
2022-10-05T00:06:31.290Z,13.93
2022-10-05T00:09:02.003Z,14.63
2022-10-05T00:11:30.494Z,15.30
2022-10-05T00:14:00.073Z,15.67
2022-10-05T00:16:29.974Z,14.80
2022-10-05T00:19:01.056Z,14.90
2022-10-05T00:21:30.841Z,15.40
2022-10-05T00:24:02.474Z,14.47
2022-10-05T00:26:34.153Z,14.57
2022-10-05T00:29:03.707Z,14.80
2022-10-05T00:31:33.604Z,14.40
2022-10-05T00:34:01.948Z,14.00
2022-10-05T00:36:30.193Z,14.47
2022-10-05T00:39:01.211Z,14.10
2022-10-05T00:41:37.535Z,13.90
2022-10-05T00:44:23.696Z,14.80
2022-10-05T00:46:57.914Z,13.97
2022-10-05T00:49:43.324Z,13.93
2022-10-05T00:52:22.043Z,13.67
2022-10-05T00:54:58.046Z,14.00
2022-10-05T00:57:38.898Z,14.33
2022-10-05T01:00:09.977Z,14.87
2022-10-05T01:02:51.326Z,14.37
2022-10-05T01:05:32.874Z,13.77
2022-10-05T01:08:09.724Z,14.40
2022-10-05T01:10:47.113Z,13.93
2022-10-05T01:13:25.666Z,14.03
2022-10-05T01:16:04.256Z,14.07
2022-10-05T01:18:39.890Z,14.27
2022-10-05T01:21:18.620Z,14.20
2022-10-05T01:24:35.085Z,16.03
2022-10-05T01:27:37.582Z,14.87
2022-10-05T01:30:11.238Z,15.47
2022-10-05T01:32:45.629Z,17.70
2022-10-05T01:35:26.435Z,16.33
2022-10-05T01:38:07.115Z,16.50
2022-10-05T01:40:40.934Z,16.10
2022-10-05T01:43:20.257Z,16.40
2022-10-05T01:45:59.765Z,15.70
2022-10-05T01:48:36.417Z,15.50
2022-10-05T01:51:12.947Z,15.13
2022-10-05T01:53:55.486Z,14.97
2022-10-05T01:56:31.573Z,14.30
2022-10-05T01:59:16.707Z,14.43
2022-10-05T02:01:55.055Z,14.80
2022-10-05T02:05:00.267Z,14.80
2022-10-05T02:07:24.435Z,14.43
2022-10-05T02:10:00.008Z,16.93
2022-10-05T02:12:34.694Z,15.10
2022-10-05T02:15:13.815Z,15.43
2022-10-05T02:17:46.766Z,15.10
2022-10-05T02:20:22.016Z,15.50
2022-10-05T02:22:53.995Z,14.93
2022-10-05T02:25:27.903Z,15.60
2022-10-05T02:28:01.202Z,15.30
2022-10-05T02:30:35.003Z,15.67
2022-10-05T02:33:10.821Z,15.37
2022-10-05T02:35:39.409Z,15.93
2022-10-05T02:38:15.041Z,15.20
2022-10-05T02:40:52.657Z,15.53
2022-10-05T02:43:38.904Z,16.47
2022-10-05T02:46:20.609Z,16.03
2022-10-05T02:49:00.668Z,16.17
2022-10-05T02:51:35.106Z,15.67
2022-10-05T02:54:14.855Z,17.80
2022-10-05T02:56:52.714Z,16.93
2022-10-05T02:59:28.177Z,16.47
2022-10-05T03:02:01.637Z,17.50
2022-10-05T03:04:39.076Z,16.33
2022-10-05T03:07:15.386Z,15.67
2022-10-05T03:09:55.705Z,16.77
2022-10-05T03:12:51.605Z,16.37
2022-10-05T03:15:46.132Z,16.30
2022-10-05T03:18:28.554Z,15.70
2022-10-05T03:21:07.720Z,16.03
2022-10-05T03:23:50.927Z,15.80
2022-10-05T03:26:37.775Z,15.27
2022-10-05T03:29:20.399Z,16.23
2022-10-05T03:31:55.269Z,16.63
2022-10-05T03:34:34.587Z,15.93
2022-10-05T03:37:11.230Z,16.37
2022-10-05T03:39:43.074Z,16.00
2022-10-05T03:42:21.157Z,16.97
2022-10-05T03:44:57.011Z,17.47
2022-10-05T03:47:36.990Z,16.63
2022-10-05T03:50:25.963Z,14.80
2022-10-05T03:53:01.071Z,17.20
2022-10-05T03:55:36.894Z,15.97
2022-10-05T03:58:13.798Z,16.70
2022-10-05T04:00:47.366Z,15.73
2022-10-05T04:03:22.377Z,15.20
2022-10-05T04:05:56.785Z,14.77
2022-10-05T04:08:32.343Z,15.70
2022-10-05T04:11:05.706Z,15.57
2022-10-05T04:13:39.467Z,15.57
2022-10-05T04:16:12.559Z,17.90
2022-10-05T04:18:46.454Z,16.20
2022-10-05T04:21:23.859Z,16.37
2022-10-05T04:24:00.096Z,16.83
2022-10-05T04:26:36.887Z,16.80
2022-10-05T04:29:20.504Z,17.03
2022-10-05T04:32:11.926Z,16.50
2022-10-05T04:34:54.567Z,15.57
2022-10-05T04:37:33.479Z,16.17
2022-10-05T04:40:16.660Z,16.30
2022-10-05T04:42:56.903Z,16.70
2022-10-05T04:45:40.505Z,17.13
2022-10-05T04:48:35.825Z,16.50
2022-10-05T04:51:18.423Z,15.40
2022-10-05T04:53:55.284Z,15.77
2022-10-05T04:56:35.463Z,16.60
2022-10-05T04:59:27.767Z,16.40
2022-10-05T05:02:07.617Z,16.00
2022-10-05T05:04:51.997Z,16.57
2022-10-05T05:07:38.381Z,15.60
2022-10-05T05:10:40.933Z,15.40
2022-10-05T05:13:25.403Z,16.17
2022-10-05T05:15:59.777Z,15.93
2022-10-05T05:18:55.263Z,16.83
2022-10-05T05:21:38.001Z,18.33
2022-10-05T05:24:12.996Z,16.00
2022-10-05T05:26:55.723Z,18.07
2022-10-05T05:29:37.399Z,17.47
2022-10-05T05:32:14.561Z,18.60
2022-10-05T05:34:56.175Z,21.43
2022-10-05T05:37:32.175Z,18.47
2022-10-05T05:40:08.108Z,17.67
2022-10-05T05:42:45.278Z,15.50
2022-10-05T05:45:20.008Z,14.10
2022-10-05T05:47:53.907Z,12.50
2022-10-05T05:50:39.584Z,12.37
2022-10-05T05:53:15.865Z,11.80
2022-10-05T05:55:48.044Z,11.67
2022-10-05T05:58:26.046Z,11.43
2022-10-05T06:00:59.528Z,12.47
2022-10-05T06:03:33.694Z,11.40
2022-10-05T06:06:07.625Z,11.53
2022-10-05T06:08:41.067Z,11.63
2022-10-05T06:11:34.310Z,10.53
2022-10-05T06:14:11.808Z,11.00
2022-10-05T06:16:47.419Z,11.20
2022-10-05T06:19:19.844Z,11.97
2022-10-05T06:21:56.287Z,10.90
2022-10-05T06:24:28.581Z,11.27
2022-10-05T06:27:27.622Z,10.43
2022-10-05T06:30:06.496Z,9.93
2022-10-05T06:32:52.764Z,10.00
2022-10-05T06:35:33.358Z,9.90
2022-10-05T06:38:15.902Z,10.00
2022-10-05T06:41:00.847Z,9.27
2022-10-05T06:43:43.385Z,9.57
2022-10-05T06:46:42.466Z,9.30
2022-10-05T06:49:42.558Z,8.83
2022-10-05T06:52:39.978Z,9.30
2022-10-05T06:55:19.380Z,9.70
2022-10-05T06:58:01.393Z,9.43
2022-10-05T07:00:37.474Z,9.00
2022-10-05T07:03:20.071Z,9.27
2022-10-05T07:05:56.123Z,10.07
2022-10-05T07:08:40.814Z,9.97
2022-10-05T07:11:23.533Z,9.60
2022-10-05T07:14:04.875Z,9.77
2022-10-05T07:16:45.681Z,9.63
2022-10-05T07:19:27.113Z,9.67
2022-10-05T07:22:16.223Z,9.93
2022-10-05T07:24:54.146Z,10.17
2022-10-05T07:27:25.737Z,9.57
2022-10-05T07:30:00.386Z,9.77
2022-10-05T07:32:36.474Z,9.65
2022-10-05T07:35:34.579Z,10.40
2022-10-05T07:38:08.519Z,9.98
2022-10-05T07:40:42.625Z,9.50
2022-10-05T07:43:40.276Z,9.80
2022-10-05T07:46:23.543Z,9.80
2022-10-05T07:49:03.229Z,8.73
2022-10-05T07:51:37.987Z,9.32
2022-10-05T07:54:19.575Z,9.10
2022-10-05T07:56:50.977Z,9.57
2022-10-05T07:59:29.365Z,9.93
2022-10-05T08:02:11.179Z,8.98
2022-10-05T08:04:47.176Z,9.20
2022-10-05T08:07:18.851Z,9.80
2022-10-05T08:09:54.535Z,8.90
2022-10-05T08:12:33.355Z,9.57
2022-10-05T08:15:06.855Z,10.20
2022-10-05T08:17:42.761Z,10.27
2022-10-05T08:20:27.975Z,10.23
2022-10-05T08:23:02.224Z,10.77
2022-10-05T08:25:41.376Z,10.98
2022-10-05T08:28:18.241Z,9.52
2022-10-05T08:31:05.003Z,9.43
2022-10-05T08:33:43.132Z,9.73
2022-10-05T08:36:15.495Z,9.70
2022-10-05T08:38:45.473Z,10.03
2022-10-05T08:41:58.585Z,11.32
2022-10-05T08:45:09.137Z,10.98
2022-10-05T08:48:03.153Z,10.50
2022-10-05T08:51:12.405Z,10.48
2022-10-05T08:54:07.010Z,11.65
2022-10-05T08:56:44.314Z,9.57
2022-10-05T08:59:29.626Z,10.43
2022-10-05T09:02:19.196Z,10.20
2022-10-05T09:05:18.483Z,9.48
2022-10-05T09:08:14.002Z,9.60
2022-10-05T09:11:02.533Z,10.15
2022-10-05T09:14:00.333Z,9.63
2022-10-05T09:16:44.851Z,9.68
2022-10-05T09:20:09.991Z,9.32
2022-10-05T09:22:56.710Z,10.60
2022-10-05T09:25:42.517Z,10.20
2022-10-05T09:28:32.601Z,9.70
2022-10-05T09:31:19.093Z,10.10
2022-10-05T09:34:05.136Z,9.70
2022-10-05T09:37:20.955Z,9.18
2022-10-05T09:40:41.810Z,10.07
2022-10-05T09:43:36.884Z,10.45
2022-10-05T09:46:30.351Z,9.90
2022-10-05T09:49:23.716Z,8.90
2022-10-05T09:52:17.928Z,9.30
2022-10-05T09:55:28.969Z,9.65
2022-10-05T09:58:48.553Z,10.38
2022-10-05T10:01:34.991Z,9.30
2022-10-05T10:04:24.772Z,9.87
2022-10-05T10:07:21.776Z,10.15
2022-10-05T10:10:18.110Z,9.83
2022-10-05T10:12:59.941Z,9.70
2022-10-05T10:16:00.283Z,9.53
2022-10-05T10:18:56.922Z,9.60
2022-10-05T10:22:07.047Z,10.03
2022-10-05T10:25:06.555Z,10.40
2022-10-05T10:28:08.117Z,10.07
2022-10-05T10:30:53.558Z,9.83
2022-10-05T10:33:38.655Z,9.93
2022-10-05T10:36:14.402Z,9.60
2022-10-05T10:38:53.997Z,9.87
2022-10-05T10:41:59.053Z,9.23
2022-10-05T10:44:59.000Z,11.43
2022-10-05T10:47:51.289Z,10.27
2022-10-05T10:50:51.318Z,10.20
2022-10-05T10:54:03.776Z,10.20
2022-10-05T10:57:03.236Z,11.35
2022-10-05T11:00:02.245Z,10.90
2022-10-05T11:02:56.125Z,11.53
2022-10-05T11:05:34.244Z,11.57
2022-10-05T11:08:28.421Z,13.13
2022-10-05T11:11:23.688Z,12.93
2022-10-05T11:14:12.227Z,12.30
2022-10-05T11:17:05.376Z,11.13
2022-10-05T11:20:04.071Z,13.80
2022-10-05T11:22:47.057Z,12.97
2022-10-05T11:25:41.546Z,12.23
2022-10-05T11:28:41.408Z,11.40
2022-10-05T11:31:37.148Z,10.20
2022-10-05T11:34:33.537Z,9.20
2022-10-05T11:37:33.086Z,8.83
2022-10-05T11:40:34.419Z,8.48
2022-10-05T11:43:33.570Z,7.78
2022-10-05T11:46:11.798Z,7.97
2022-10-05T11:48:56.973Z,9.80
2022-10-05T11:51:54.050Z,7.88
2022-10-05T11:55:09.186Z,7.65
2022-10-05T11:57:38.867Z,8.10
2022-10-05T12:00:14.955Z,8.07
2022-10-05T12:03:25.014Z,8.20
2022-10-05T12:06:30.273Z,8.38
2022-10-05T12:09:14.511Z,8.40
2022-10-05T12:12:00.262Z,8.02
2022-10-05T12:14:40.911Z,8.57
2022-10-05T12:17:21.686Z,8.20
2022-10-05T12:19:55.609Z,8.70
2022-10-05T12:22:29.303Z,9.30
2022-10-05T12:25:06.551Z,7.80
2022-10-05T12:27:38.432Z,8.32
2022-10-05T12:30:15.526Z,7.70
2022-10-05T12:33:01.013Z,8.93
2022-10-05T12:35:47.955Z,7.80
2022-10-05T12:38:28.474Z,7.70
2022-10-05T12:41:07.321Z,8.10
2022-10-05T12:43:46.070Z,7.83
2022-10-05T12:46:26.465Z,8.50
2022-10-05T12:49:23.478Z,8.83
2022-10-05T12:51:57.654Z,10.87
2022-10-05T12:54:34.988Z,9.17
2022-10-05T12:57:12.210Z,14.30
2022-10-05T12:59:45.716Z,13.88
2022-10-05T13:02:25.927Z,13.60
2022-10-05T13:05:00.970Z,11.77
2022-10-05T13:07:46.021Z,10.10
2022-10-05T13:10:28.266Z,10.60
2022-10-05T13:13:12.004Z,10.80
2022-10-05T13:15:48.144Z,10.30
2022-10-05T13:18:24.126Z,9.93
2022-10-05T13:21:04.023Z,10.07
2022-10-05T13:23:44.901Z,10.37
2022-10-05T13:26:18.232Z,9.53
2022-10-05T13:28:53.267Z,10.53
2022-10-05T13:31:25.834Z,9.63
2022-10-05T13:34:08.806Z,9.70
2022-10-05T13:36:46.469Z,9.37
2022-10-05T13:39:29.647Z,9.33
2022-10-05T13:42:05.258Z,9.30
2022-10-05T13:44:41.315Z,10.37
2022-10-05T13:47:18.311Z,10.03
2022-10-05T13:49:55.236Z,9.30
2022-10-05T13:52:52.468Z,9.40
2022-10-05T13:55:32.196Z,9.43
2022-10-05T13:58:06.880Z,9.47
2022-10-05T14:00:42.526Z,10.20
2022-10-05T14:03:30.611Z,10.20
2022-10-05T14:06:01.374Z,9.50
2022-10-05T14:08:34.578Z,9.90
2022-10-05T14:11:22.535Z,10.70
2022-10-05T14:13:52.247Z,10.13
2022-10-05T14:16:23.156Z,9.60
2022-10-05T14:18:58.396Z,10.30
2022-10-05T14:21:30.329Z,10.33
2022-10-05T14:24:32.068Z,11.07
2022-10-05T14:27:21.389Z,11.07
2022-10-05T14:29:57.880Z,11.13
2022-10-05T14:32:28.215Z,14.17
2022-10-05T14:35:13.866Z,12.50
2022-10-05T14:37:50.295Z,15.90
2022-10-05T14:40:30.533Z,12.13
2022-10-05T14:43:01.160Z,12.10
2022-10-05T14:45:30.945Z,11.53
2022-10-05T14:48:11.648Z,10.77
2022-10-05T14:50:54.997Z,10.97
2022-10-05T14:53:25.736Z,11.00
2022-10-05T14:56:17.319Z,11.83
2022-10-05T14:59:15.045Z,11.50
2022-10-05T15:01:52.988Z,11.80
2022-10-05T15:04:37.681Z,11.30
2022-10-05T15:07:19.556Z,10.93
2022-10-05T15:10:03.794Z,11.23
2022-10-05T15:12:36.426Z,10.93
2022-10-05T15:15:28.003Z,10.53
2022-10-05T15:18:00.625Z,12.40
2022-10-05T15:20:36.275Z,11.83
2022-10-05T15:23:24.932Z,12.50
2022-10-05T15:26:04.035Z,11.30
2022-10-05T15:28:41.750Z,10.17
2022-10-05T15:31:22.081Z,10.13
2022-10-05T15:34:01.051Z,9.77
2022-10-05T15:36:42.323Z,10.20
2022-10-05T15:39:20.996Z,10.20
2022-10-05T15:42:00.465Z,10.43
2022-10-05T15:44:48.187Z,10.97
2022-10-05T15:47:23.911Z,11.33
2022-10-05T15:50:03.218Z,10.70
2022-10-05T15:52:38.988Z,13.63
2022-10-05T15:55:29.736Z,14.73
2022-10-05T15:58:20.577Z,21.47
2022-10-05T16:00:58.818Z,28.43
2022-10-05T16:03:37.368Z,23.83
2022-10-05T16:06:31.412Z,23.40
2022-10-05T16:09:11.504Z,18.40
2022-10-05T16:12:03.542Z,17.07
2022-10-05T16:14:45.835Z,14.87
2022-10-05T16:17:33.775Z,14.43
2022-10-05T16:20:21.997Z,13.40
2022-10-05T16:22:56.688Z,14.03
2022-10-05T16:25:32.694Z,14.23
2022-10-05T16:28:15.437Z,13.87
2022-10-05T16:30:55.448Z,17.43
2022-10-05T16:33:37.118Z,19.60
2022-10-05T16:36:19.573Z,19.70
2022-10-05T16:38:54.291Z,18.03
2022-10-05T16:41:28.454Z,16.63
2022-10-05T16:44:09.994Z,17.57
2022-10-05T16:46:44.042Z,18.90
2022-10-05T16:49:25.219Z,18.20
2022-10-05T16:51:59.178Z,17.83
2022-10-05T16:54:32.737Z,16.17
2022-10-05T16:57:12.202Z,14.07
2022-10-05T17:00:16.570Z,13.37
2022-10-05T17:03:05.965Z,13.53
2022-10-05T17:05:48.344Z,13.43
2022-10-05T17:08:39.606Z,13.63
2022-10-05T17:11:17.151Z,13.57
2022-10-05T17:14:09.993Z,12.93
2022-10-05T17:16:54.043Z,14.43
2022-10-05T17:19:53.240Z,20.63
2022-10-05T17:22:29.385Z,24.07
2022-10-05T17:25:05.714Z,36.27
2022-10-05T17:27:36.814Z,28.00
2022-10-05T17:30:45.535Z,21.57
2022-10-05T17:33:22.274Z,18.60
2022-10-05T17:36:20.264Z,18.77
2022-10-05T17:38:52.554Z,17.43
2022-10-05T17:41:25.918Z,18.83
2022-10-05T17:44:26.257Z,19.13
2022-10-05T17:46:59.523Z,18.13
2022-10-05T17:50:16.736Z,16.57
2022-10-05T17:53:03.947Z,16.40
2022-10-05T17:55:45.878Z,15.03
2022-10-05T17:59:02.686Z,15.70
2022-10-05T18:01:33.950Z,15.37
2022-10-05T18:04:30.528Z,16.63
2022-10-05T18:07:16.217Z,15.67
2022-10-05T18:10:19.811Z,17.10
2022-10-05T18:12:51.437Z,17.17
2022-10-05T18:15:45.953Z,17.63
2022-10-05T18:18:59.126Z,15.17
2022-10-05T18:21:40.093Z,16.40
2022-10-05T18:24:36.491Z,16.57
2022-10-05T18:27:17.066Z,17.07
2022-10-05T18:30:05.618Z,15.30
2022-10-05T18:32:54.211Z,15.97
2022-10-05T18:35:28.063Z,16.00
2022-10-05T18:38:06.870Z,17.27
2022-10-05T18:40:48.858Z,22.10
2022-10-05T18:43:29.140Z,20.67
2022-10-05T18:46:09.230Z,17.10
2022-10-05T18:48:45.713Z,16.50
2022-10-05T18:51:26.192Z,15.93
2022-10-05T18:54:07.276Z,15.97
2022-10-05T18:56:39.735Z,15.90
2022-10-05T18:59:20.773Z,16.17
2022-10-05T19:01:59.405Z,18.10
2022-10-05T19:04:37.013Z,20.20
2022-10-05T19:07:14.106Z,21.07
2022-10-05T19:09:57.264Z,20.60
2022-10-05T19:12:41.287Z,20.77
2022-10-05T19:15:20.427Z,17.17
2022-10-05T19:18:07.016Z,18.37
2022-10-05T19:20:41.714Z,20.03
2022-10-05T19:23:30.614Z,20.17
2022-10-05T19:26:09.817Z,17.20
2022-10-05T19:28:45.591Z,17.10
2022-10-05T19:31:29.158Z,16.33
2022-10-05T19:34:16.551Z,18.33
2022-10-05T19:37:00.366Z,18.90
2022-10-05T19:39:38.459Z,19.63
2022-10-05T19:42:32.470Z,26.60
2022-10-05T19:45:12.215Z,28.50
2022-10-05T19:47:50.461Z,27.93
2022-10-05T19:50:29.866Z,24.00
2022-10-05T19:53:04.181Z,24.23
2022-10-05T19:55:39.751Z,21.60
2022-10-05T19:58:20.466Z,20.63
2022-10-05T20:00:59.481Z,18.07
2022-10-05T20:03:30.348Z,17.23
2022-10-05T20:06:02.034Z,16.93
2022-10-05T20:08:39.507Z,15.00
2022-10-05T20:11:10.565Z,15.03
2022-10-05T20:13:40.038Z,15.80
2022-10-05T20:16:37.633Z,15.60
2022-10-05T20:19:24.534Z,17.57
2022-10-05T20:21:56.795Z,17.43
2022-10-05T20:24:27.154Z,15.77
2022-10-05T20:27:04.873Z,15.33
2022-10-05T20:29:36.532Z,15.80
2022-10-05T20:32:08.667Z,14.43
2022-10-05T20:34:39.386Z,15.20
2022-10-05T20:37:09.125Z,15.50
2022-10-05T20:39:37.465Z,16.50
2022-10-05T20:42:07.392Z,15.70
2022-10-05T20:44:36.357Z,16.30
2022-10-05T20:47:04.767Z,15.67
2022-10-05T20:49:35.216Z,15.73
2022-10-05T20:52:04.195Z,16.80
2022-10-05T20:54:34.053Z,16.07
2022-10-05T20:57:02.466Z,15.63
2022-10-05T20:59:30.846Z,17.07
2022-10-05T21:01:59.274Z,16.97
2022-10-05T21:04:40.826Z,17.13
2022-10-05T21:07:10.159Z,16.63
2022-10-05T21:09:41.136Z,15.77
2022-10-05T21:12:09.611Z,15.43
2022-10-05T21:14:38.059Z,15.70
2022-10-05T21:17:07.309Z,16.33
2022-10-05T21:19:38.519Z,15.83
2022-10-05T21:22:08.614Z,15.10
2022-10-05T21:24:37.770Z,14.17
2022-10-05T21:27:08.051Z,14.30
2022-10-05T21:29:37.179Z,15.60
2022-10-05T21:32:08.804Z,15.23
2022-10-05T21:34:37.235Z,15.20
2022-10-05T21:37:05.844Z,15.87
2022-10-05T21:39:35.357Z,15.17
2022-10-05T21:42:03.999Z,16.40
2022-10-05T21:44:33.597Z,15.40
2022-10-05T21:47:02.028Z,16.13
2022-10-05T21:49:31.173Z,16.23
2022-10-05T21:52:00.844Z,15.03
2022-10-05T21:54:29.165Z,15.47
2022-10-05T21:57:00.171Z,15.60
2022-10-05T21:59:32.917Z,15.13
2022-10-05T22:02:03.032Z,15.47
2022-10-05T22:04:31.375Z,15.20
2022-10-05T22:06:59.766Z,14.10
2022-10-05T22:09:28.203Z,14.70
2022-10-05T22:11:57.542Z,14.23
2022-10-05T22:14:25.926Z,14.53
2022-10-05T22:16:55.150Z,15.13
2022-10-05T22:19:24.826Z,14.80
2022-10-05T22:21:53.197Z,15.13
2022-10-05T22:24:21.536Z,14.93
2022-10-05T22:26:51.766Z,13.53
2022-10-05T22:29:21.151Z,15.07
2022-10-05T22:31:49.693Z,15.30
2022-10-05T22:34:19.367Z,14.77
2022-10-05T22:36:50.414Z,15.17
2022-10-05T22:39:18.953Z,15.33
2022-10-05T22:41:47.177Z,14.17
2022-10-05T22:44:15.419Z,14.30
2022-10-05T22:46:43.745Z,15.03
2022-10-05T22:49:12.066Z,14.60
2022-10-05T22:51:40.368Z,14.50
2022-10-05T22:54:10.013Z,15.37
2022-10-05T22:56:38.376Z,14.73
2022-10-05T22:59:06.659Z,14.27
2022-10-05T23:01:35.106Z,14.57
2022-10-05T23:04:04.541Z,14.83
2022-10-05T23:06:33.181Z,15.23
2022-10-05T23:09:01.493Z,14.73
2022-10-05T23:11:31.463Z,15.87
2022-10-05T23:14:00.449Z,16.13
2022-10-05T23:16:30.016Z,15.80
2022-10-05T23:18:59.237Z,15.10
2022-10-05T23:21:30.209Z,16.10
2022-10-05T23:23:58.562Z,16.03
2022-10-05T23:26:27.384Z,15.20
2022-10-05T23:28:57.010Z,15.80
2022-10-05T23:31:28.856Z,16.60
2022-10-05T23:33:57.486Z,15.77
2022-10-05T23:36:27.664Z,15.90
2022-10-05T23:38:56.077Z,14.60
2022-10-05T23:41:25.490Z,14.90
2022-10-05T23:43:55.287Z,18.30
2022-10-05T23:46:25.115Z,16.00
2022-10-05T23:48:53.621Z,15.40
2022-10-05T23:51:22.005Z,15.20
2022-10-05T23:53:50.353Z,17.00
2022-10-05T23:56:18.728Z,15.33
2022-10-05T23:58:47.029Z,16.27
